Time;durP1;ratioP1;P1;durP2;ratioP2;P2;SDS_P1;SDS_P2;PMS_P1;PMS_P2;Temp;Humidity;BMP_temperature;BMP_pressure;BME280_temperature;BME280_humidity;BME280_pressure;Samples;Min_cycle;Max_cycle;Signal;HPM_P1;HPM_P2
2024/01/17 00:01:35;;;;;;;59.03;25.00;;;-4.70;99.90;;;;;;5059073;28;20235;-79
2024/01/17 00:04:23;;;;;;;65.93;24.03;;;-4.80;99.90;;;;;;5058249;28;20267;-78
2024/01/17 00:07:10;;;;;;;62.40;25.53;;;-4.80;99.90;;;;;;5073739;28;20672;-79
2024/01/17 00:09:58;;;;;;;64.63;26.80;;;-4.90;99.90;;;;;;5072706;28;20198;-79
2024/01/17 00:12:45;;;;;;;65.30;26.40;;;-5.10;99.90;;;;;;5072971;28;20219;-78
2024/01/17 00:15:33;;;;;;;72.90;26.50;;;-5.10;99.90;;;;;;5058257;28;20206;-79
2024/01/17 00:18:20;;;;;;;68.17;26.63;;;-5.20;99.90;;;;;;5058610;28;20256;-79
2024/01/17 00:21:08;;;;;;;69.17;28.33;;;-5.30;99.90;;;;;;5072118;28;20320;-79
2024/01/17 00:23:55;;;;;;;78.13;29.37;;;-5.30;99.90;;;;;;5072208;28;20190;-78
2024/01/17 00:26:43;;;;;;;79.70;30.77;;;-5.30;99.90;;;;;;5072795;28;20239;-79
2024/01/17 00:29:30;;;;;;;86.47;30.03;;;-5.30;99.90;;;;;;5058416;28;20194;-78
2024/01/17 00:32:18;;;;;;;77.87;30.97;;;-5.30;99.90;;;;;;5072629;28;20210;-79
2024/01/17 00:35:08;;;;;;;77.40;31.57;;;-5.40;99.90;;;;;;5071805;28;20373;-78
2024/01/17 00:37:56;;;;;;;80.20;30.93;;;-5.30;99.90;;;;;;5058602;28;20206;-79
2024/01/17 00:40:43;;;;;;;77.33;30.20;;;-5.40;99.90;;;;;;5058346;28;20194;-79
2024/01/17 00:43:32;;;;;;;78.43;30.43;;;-5.40;99.90;;;;;;5074083;28;20351;-78
2024/01/17 00:46:20;;;;;;;74.87;30.50;;;-5.40;99.90;;;;;;5058007;28;20190;-79
2024/01/17 00:49:07;;;;;;;83.90;31.53;;;-5.30;99.90;;;;;;5072289;28;20232;-79
2024/01/17 00:51:55;;;;;;;78.43;30.17;;;-5.20;99.90;;;;;;5072448;28;20200;-79
2024/01/17 00:54:42;;;;;;;72.37;29.23;;;-5.20;99.90;;;;;;5072072;28;20218;-78
2024/01/17 00:57:29;;;;;;;81.10;30.63;;;-5.30;99.90;;;;;;5057730;28;20219;-78
2024/01/17 01:00:17;;;;;;;79.03;30.90;;;-5.20;99.90;;;;;;5072225;28;20723;-79
2024/01/17 01:03:04;;;;;;;81.97;31.70;;;-5.20;99.90;;;;;;5071303;28;20186;-79
2024/01/17 01:05:52;;;;;;;81.60;30.83;;;-5.30;99.90;;;;;;5073076;28;20237;-79
2024/01/17 01:08:39;;;;;;;78.53;30.57;;;-5.20;99.90;;;;;;5057753;28;20206;-79
2024/01/17 01:11:32;;;;;;;77.77;30.53;;;-5.10;99.90;;;;;;5072990;28;20339;-79
2024/01/17 01:14:20;;;;;;;82.97;31.43;;;-5.10;99.90;;;;;;5058105;28;20261;-78
2024/01/17 01:17:07;;;;;;;78.40;30.80;;;-5.00;99.90;;;;;;5071225;28;20574;-79
2024/01/17 01:19:57;;;;;;;76.27;30.37;;;-5.00;99.90;;;;;;5073642;28;20267;-79
2024/01/17 01:22:44;;;;;;;79.97;30.50;;;-4.90;99.90;;;;;;5071868;28;20194;-79
2024/01/17 01:25:32;;;;;;;80.40;31.13;;;-4.90;99.90;;;;;;5073496;28;20192;-78
2024/01/17 01:28:19;;;;;;;77.63;29.47;;;-5.00;99.90;;;;;;5071781;28;20351;-79
2024/01/17 01:31:07;;;;;;;78.37;30.67;;;-5.00;99.90;;;;;;5071185;28;20196;-78
2024/01/17 01:33:55;;;;;;;83.07;29.63;;;-5.00;99.90;;;;;;5071735;28;20214;-79
2024/01/17 01:36:42;;;;;;;74.80;29.67;;;-5.10;99.90;;;;;;5071638;28;20190;-78
2024/01/17 01:39:30;;;;;;;72.77;28.40;;;-5.00;99.90;;;;;;5071583;28;20192;-78
2024/01/17 01:42:17;;;;;;;77.20;29.77;;;-5.00;99.90;;;;;;5071626;28;20224;-78
2024/01/17 01:45:05;;;;;;;67.73;27.83;;;-4.90;99.90;;;;;;5071530;28;20198;-78
2024/01/17 01:47:52;;;;;;;71.83;27.03;;;-4.90;99.90;;;;;;5071494;28;20186;-79
2024/01/17 01:50:41;;;;;;;67.83;27.23;;;-5.00;99.90;;;;;;5070699;28;20197;-78
2024/01/17 01:53:30;;;;;;;73.77;27.37;;;-5.00;99.90;;;;;;5071408;28;20548;-79
2024/01/17 01:56:21;;;;;;;66.00;26.50;;;-4.80;99.90;;;;;;5070918;28;20737;-79
2024/01/17 01:59:09;;;;;;;68.17;27.07;;;-4.80;99.90;;;;;;5071472;28;20197;-79
2024/01/17 02:01:58;;;;;;;62.37;25.73;;;-4.70;99.90;;;;;;5072742;28;20201;-78
2024/01/17 02:04:46;;;;;;;67.73;26.33;;;-4.70;99.90;;;;;;5061043;28;20592;-78
2024/01/17 02:07:34;;;;;;;65.10;25.80;;;-4.70;99.90;;;;;;5060933;28;20597;-79
2024/01/17 02:10:22;;;;;;;69.73;25.47;;;-4.60;99.90;;;;;;5060909;28;20198;-79
2024/01/17 02:13:09;;;;;;;62.37;24.47;;;-4.50;99.90;;;;;;5060307;28;20214;-79
2024/01/17 02:15:56;;;;;;;60.80;24.20;;;-4.60;99.90;;;;;;5075113;28;20569;-79
2024/01/17 02:18:44;;;;;;;61.57;24.27;;;-4.50;99.90;;;;;;5076250;28;20741;-79
2024/01/17 02:21:31;;;;;;;59.63;23.90;;;-4.40;99.90;;;;;;5076773;28;20289;-79
2024/01/17 02:24:22;;;;;;;56.77;23.23;;;-4.40;99.90;;;;;;5074901;28;20194;-79
2024/01/17 02:27:09;;;;;;;56.07;23.00;;;-4.40;99.90;;;;;;5076652;28;20214;-79
2024/01/17 02:29:57;;;;;;;56.20;22.13;;;-4.40;99.90;;;;;;5060555;28;20201;-79
2024/01/17 02:32:45;;;;;;;56.17;22.67;;;-4.40;99.90;;;;;;5074282;28;20570;-79
2024/01/17 02:35:34;;;;;;;61.63;23.77;;;-4.50;99.90;;;;;;5074706;28;20220;-79
2024/01/17 02:38:21;;;;;;;60.00;23.40;;;-4.50;99.90;;;;;;5060020;28;20665;-79
2024/01/17 02:41:09;;;;;;;53.63;21.60;;;-4.40;99.90;;;;;;5060261;28;20214;-79
2024/01/17 02:43:56;;;;;;;55.00;22.97;;;-4.30;99.90;;;;;;5076582;28;20708;-79
2024/01/17 02:46:44;;;;;;;58.10;22.50;;;-4.30;99.90;;;;;;5075674;28;20198;-79
2024/01/17 02:49:31;;;;;;;53.83;22.73;;;-4.30;99.90;;;;;;5076348;28;20201;-79
2024/01/17 02:52:19;;;;;;;51.60;21.60;;;-4.20;99.90;;;;;;5074388;28;20194;-79
2024/01/17 02:55:08;;;;;;;50.50;22.27;;;-4.10;99.90;;;;;;5074165;28;20214;-79
2024/01/17 02:57:55;;;;;;;49.63;21.33;;;-4.00;99.90;;;;;;5060012;28;20216;-79
2024/01/17 03:00:43;;;;;;;54.03;21.93;;;-4.00;99.90;;;;;;5074291;28;20246;-79
2024/01/17 03:03:31;;;;;;;50.77;20.93;;;-4.10;99.90;;;;;;5059974;28;20195;-79
2024/01/17 03:06:18;;;;;;;50.53;21.43;;;-4.20;99.90;;;;;;5059946;28;20312;-79
2024/01/17 03:09:07;;;;;;;52.53;21.10;;;-4.20;99.90;;;;;;5074000;28;20194;-79
2024/01/17 03:11:54;;;;;;;50.27;21.77;;;-4.20;99.90;;;;;;5059727;28;20356;-79
2024/01/17 03:14:41;;;;;;;54.53;22.80;;;-4.30;99.90;;;;;;5073759;28;20218;-79
2024/01/17 03:17:29;;;;;;;49.10;21.03;;;-4.10;99.90;;;;;;5073414;28;20191;-79
2024/01/17 03:20:17;;;;;;;56.97;22.27;;;-4.00;99.90;;;;;;5073938;28;20190;-79
2024/01/17 03:23:05;;;;;;;50.93;20.90;;;-4.00;99.90;;;;;;5059664;28;20677;-79
2024/01/17 03:25:52;;;;;;;54.20;21.47;;;-3.90;99.90;;;;;;5059519;28;20186;-79
2024/01/17 03:28:39;;;;;;;46.93;20.33;;;-4.00;99.90;;;;;;5074328;28;20264;-79
2024/01/17 03:31:27;;;;;;;52.67;21.93;;;-4.00;99.90;;;;;;5073731;28;20201;-79
2024/01/17 03:34:14;;;;;;;53.17;21.53;;;-3.80;99.90;;;;;;5073855;28;20305;-79
2024/01/17 03:37:02;;;;;;;53.67;20.73;;;-3.80;99.90;;;;;;5073550;28;20194;-79
2024/01/17 03:39:54;;;;;;;50.27;21.30;;;-3.60;99.90;;;;;;5075261;28;20221;-79
2024/01/17 03:42:41;;;;;;;53.73;21.00;;;-3.60;99.90;;;;;;5073387;28;20218;-79
2024/01/17 03:45:28;;;;;;;53.10;21.07;;;-3.60;99.90;;;;;;5073517;28;20194;-79
2024/01/17 03:48:16;;;;;;;52.80;20.17;;;-3.70;99.90;;;;;;5073494;28;20224;-78
2024/01/17 03:51:03;;;;;;;49.87;20.03;;;-3.70;99.90;;;;;;5072689;28;20197;-79
2024/01/17 03:53:52;;;;;;;47.03;19.83;;;-3.70;99.90;;;;;;5058973;28;20681;-78
2024/01/17 03:56:39;;;;;;;49.97;20.50;;;-3.60;99.90;;;;;;5074130;28;20227;-79
2024/01/17 03:59:27;;;;;;;43.50;18.73;;;-3.60;99.90;;;;;;5074911;28;20191;-79
2024/01/17 04:02:15;;;;;;;48.93;19.67;;;-3.70;99.90;;;;;;5058857;28;20576;-79
2024/01/17 04:05:02;;;;;;;49.57;19.77;;;-3.80;99.90;;;;;;5074845;28;20222;-78
2024/01/17 04:07:50;;;;;;;44.03;18.43;;;-3.80;99.90;;;;;;5073090;28;20198;-79
2024/01/17 04:10:37;;;;;;;46.80;19.23;;;-3.70;99.90;;;;;;5072246;28;20277;-79
2024/01/17 04:13:24;;;;;;;49.17;18.83;;;-3.70;99.90;;;;;;5073169;28;20202;-79
2024/01/17 04:16:12;;;;;;;44.73;18.43;;;-3.70;99.90;;;;;;5072866;28;20229;-79
2024/01/17 04:18:59;;;;;;;42.73;17.97;;;-3.70;99.90;;;;;;5072903;28;20186;-79
2024/01/17 04:21:46;;;;;;;43.67;18.77;;;-3.70;99.90;;;;;;5072746;28;20266;-79
2024/01/17 04:24:34;;;;;;;45.10;18.10;;;-3.50;99.90;;;;;;5073950;28;20209;-79
2024/01/17 04:27:21;;;;;;;47.90;18.40;;;-3.50;99.90;;;;;;5072395;28;20218;-79
2024/01/17 04:30:11;;;;;;;45.17;18.00;;;-3.80;99.90;;;;;;5074307;28;20201;-79
2024/01/17 04:33:00;;;;;;;41.93;18.07;;;-3.90;99.90;;;;;;5058867;28;20652;-78
2024/01/17 04:35:47;;;;;;;44.80;17.40;;;-3.80;99.90;;;;;;5071985;28;20222;-79
2024/01/17 04:38:35;;;;;;;41.53;17.23;;;-3.80;99.90;;;;;;5072581;28;20209;-79
2024/01/17 04:41:22;;;;;;;41.97;16.50;;;-3.70;99.90;;;;;;5072464;28;20693;-78
2024/01/17 04:44:10;;;;;;;40.73;17.70;;;-3.80;99.90;;;;;;5071727;28;20198;-78
2024/01/17 04:46:57;;;;;;;36.93;16.67;;;-3.80;99.90;;;;;;5058040;28;20190;-78
2024/01/17 04:49:46;;;;;;;43.87;16.40;;;-3.80;99.90;;;;;;5072684;28;20249;-77
2024/01/17 04:52:34;;;;;;;38.27;17.00;;;-3.90;99.90;;;;;;5058332;28;20194;-78
2024/01/17 04:55:22;;;;;;;39.67;16.83;;;-4.00;99.90;;;;;;5073763;28;20337;-78
2024/01/17 04:58:09;;;;;;;38.97;16.50;;;-3.90;99.90;;;;;;5077918;28;20218;-77
2024/01/17 05:00:56;;;;;;;40.17;16.87;;;-4.00;99.90;;;;;;5070317;28;20202;-76
2024/01/17 05:03:44;;;;;;;41.93;16.53;;;-4.00;99.90;;;;;;5084092;28;20657;-77
2024/01/17 05:06:32;;;;;;;36.93;16.33;;;-4.00;99.90;;;;;;5082790;28;20347;-76
2024/01/17 05:09:21;;;;;;;38.37;16.07;;;-4.10;99.90;;;;;;5065001;28;20208;-78
2024/01/17 05:12:08;;;;;;;38.83;16.07;;;-4.20;99.90;;;;;;5075644;28;20214;-78
2024/01/17 05:14:58;;;;;;;40.80;17.27;;;-4.10;99.90;;;;;;5077913;28;20221;-78
2024/01/17 05:17:45;;;;;;;36.40;16.00;;;-4.10;99.90;;;;;;5072151;28;20241;-77
2024/01/17 05:20:33;;;;;;;38.27;17.00;;;-4.00;99.90;;;;;;5074431;28;20255;-78
2024/01/17 05:23:21;;;;;;;40.10;16.33;;;-4.00;99.90;;;;;;5071751;28;20286;-78
2024/01/17 05:26:08;;;;;;;37.07;16.13;;;-4.00;99.90;;;;;;5057526;28;20217;-78
2024/01/17 05:28:56;;;;;;;41.30;16.13;;;-3.90;99.90;;;;;;5071885;28;20206;-78
2024/01/17 05:31:43;;;;;;;39.63;15.70;;;-3.90;99.90;;;;;;5072749;28;20279;-78
2024/01/17 05:34:30;;;;;;;39.00;16.50;;;-3.90;99.90;;;;;;5072770;28;20193;-78
2024/01/17 05:37:19;;;;;;;33.30;14.93;;;-3.90;99.90;;;;;;5070375;28;20335;-78
2024/01/17 05:40:10;;;;;;;37.10;16.03;;;-4.00;99.90;;;;;;5072404;28;20194;-78
2024/01/17 05:43:00;;;;;;;37.57;16.07;;;-3.90;99.90;;;;;;5056486;28;20238;-78
2024/01/17 05:45:48;;;;;;;36.67;15.67;;;-3.90;99.90;;;;;;5072964;28;20194;-77
2024/01/17 05:48:35;;;;;;;37.00;16.20;;;-3.90;99.90;;;;;;5071187;28;20210;-78
2024/01/17 05:51:23;;;;;;;38.63;15.57;;;-3.90;99.90;;;;;;5071978;28;20200;-77
2024/01/17 05:54:10;;;;;;;36.47;15.53;;;-4.00;99.90;;;;;;5073035;28;20715;-78
2024/01/17 05:56:58;;;;;;;34.57;15.37;;;-4.00;99.90;;;;;;5071134;28;20300;-78
2024/01/17 05:59:45;;;;;;;35.50;16.00;;;-4.10;99.90;;;;;;5071085;28;20220;-77
2024/01/17 06:02:32;;;;;;;38.83;16.30;;;-4.10;99.90;;;;;;5071168;28;20665;-78
2024/01/17 06:05:20;;;;;;;40.67;16.43;;;-4.10;99.90;;;;;;5074729;28;20222;-77
2024/01/17 06:08:07;;;;;;;37.40;15.73;;;-4.10;99.90;;;;;;5071129;28;20194;-78
2024/01/17 06:10:55;;;;;;;38.80;16.70;;;-4.10;99.90;;;;;;5057369;28;20667;-77
2024/01/17 06:13:42;;;;;;;37.23;15.60;;;-4.20;99.90;;;;;;5071117;28;20186;-79
2024/01/17 06:16:29;;;;;;;36.97;16.53;;;-4.20;99.90;;;;;;5072722;28;20393;-80
2024/01/17 06:19:17;;;;;;;38.90;16.23;;;-4.20;99.90;;;;;;5070090;28;20194;-78
2024/01/17 06:22:04;;;;;;;35.23;16.10;;;-4.20;99.90;;;;;;5072787;28;20612;-78
2024/01/17 06:24:52;;;;;;;41.70;16.80;;;-4.40;99.90;;;;;;5071024;28;20194;-78
2024/01/17 06:27:39;;;;;;;36.97;16.47;;;-4.50;99.90;;;;;;5056706;28;20290;-78
2024/01/17 06:30:26;;;;;;;38.90;16.63;;;-4.60;99.90;;;;;;5056755;28;20247;-78
2024/01/17 06:33:14;;;;;;;41.70;16.97;;;-4.60;99.90;;;;;;5071481;28;20273;-74
2024/01/17 06:36:02;;;;;;;39.73;16.97;;;-4.60;99.90;;;;;;5055812;28;20217;-74
2024/01/17 06:38:50;;;;;;;38.67;17.13;;;-4.60;99.90;;;;;;5070788;28;20193;-79
2024/01/17 06:41:37;;;;;;;44.63;16.47;;;-4.60;99.90;;;;;;5056441;28;20214;-79
2024/01/17 06:44:28;;;;;;;36.83;16.47;;;-4.70;99.90;;;;;;5070248;28;20201;-78
2024/01/17 06:47:16;;;;;;;44.33;17.73;;;-4.70;99.90;;;;;;5072376;28;20585;-78
2024/01/17 06:50:03;;;;;;;40.60;17.30;;;-4.70;99.90;;;;;;5074489;28;20240;-78
2024/01/17 06:52:51;;;;;;;45.93;17.30;;;-4.80;99.90;;;;;;5073449;28;20669;-79
2024/01/17 06:55:39;;;;;;;41.47;16.97;;;-4.70;99.90;;;;;;5076072;28;20263;-78
2024/01/17 06:58:26;;;;;;;43.23;17.10;;;-4.80;99.90;;;;;;5060233;28;20670;-78
2024/01/17 07:01:14;;;;;;;38.73;16.37;;;-4.80;99.90;;;;;;5075862;28;20222;-78
2024/01/17 07:04:02;;;;;;;41.33;17.90;;;-4.80;99.90;;;;;;5073817;28;20257;-78
2024/01/17 07:06:49;;;;;;;44.20;18.10;;;-4.90;99.90;;;;;;5045548;28;20194;-77
2024/01/17 07:09:36;;;;;;;39.43;17.17;;;-4.90;99.90;;;;;;5073483;28;20198;-74
2024/01/17 07:12:24;;;;;;;40.70;17.77;;;-4.90;99.90;;;;;;5074477;28;20271;-73
2024/01/17 07:15:12;;;;;;;40.17;17.63;;;-4.90;99.90;;;;;;5073748;28;20214;-73
2024/01/17 07:17:59;;;;;;;43.60;18.07;;;-4.90;99.90;;;;;;5073787;28;20194;-73
2024/01/17 07:20:49;;;;;;;43.60;18.53;;;-4.90;99.90;;;;;;5060141;28;20654;-81
2024/01/17 07:23:42;;;;;;;45.27;18.67;;;-4.90;99.90;;;;;;5060181;28;20209;-79
2024/01/17 07:26:29;;;;;;;46.43;19.23;;;-4.90;99.90;;;;;;5075416;28;20217;-79
2024/01/17 07:29:16;;;;;;;47.30;18.93;;;-5.00;99.90;;;;;;5073622;28;20201;-79
2024/01/17 07:32:04;;;;;;;45.57;19.57;;;-5.10;99.90;;;;;;5073740;28;20683;-80
2024/01/17 07:34:52;;;;;;;50.30;20.53;;;-5.10;99.90;;;;;;5073025;28;20691;-77
2024/01/17 07:37:40;;;;;;;50.30;19.50;;;-5.10;99.90;;;;;;5073141;28;20194;-78
2024/01/17 07:40:27;;;;;;;46.20;19.30;;;-5.10;99.90;;;;;;5072874;28;20186;-79
2024/01/17 07:43:15;;;;;;;47.77;19.87;;;-5.10;99.90;;;;;;5072625;28;20243;-79
2024/01/17 07:46:02;;;;;;;47.20;19.17;;;-5.00;99.90;;;;;;5059110;28;20219;-78
2024/01/17 07:48:49;;;;;;;49.10;20.93;;;-4.70;99.90;;;;;;5058514;28;20326;-80
2024/01/17 07:51:37;;;;;;;44.30;18.93;;;-4.30;99.90;;;;;;5074965;28;20234;-79
2024/01/17 07:54:24;;;;;;;41.97;18.97;;;-4.00;99.90;;;;;;5073809;28;20191;-79
2024/01/17 07:57:12;;;;;;;43.73;19.93;;;-3.60;99.90;;;;;;5072900;28;20291;-78
2024/01/17 07:59:59;;;;;;;46.80;18.03;;;-3.40;99.90;;;;;;5057763;28;20209;-79
2024/01/17 08:02:47;;;;;;;46.03;19.60;;;-3.30;99.90;;;;;;5073009;28;20668;-78
2024/01/17 08:05:35;;;;;;;47.07;19.27;;;-3.10;99.90;;;;;;5074424;28;20307;-78
2024/01/17 08:08:22;;;;;;;43.20;18.43;;;-3.00;99.90;;;;;;5058600;28;20665;-79
2024/01/17 08:11:09;;;;;;;48.03;19.33;;;-2.70;99.90;;;;;;5074507;28;20210;-79
2024/01/17 08:13:57;;;;;;;44.57;19.23;;;-2.70;99.90;;;;;;5072342;28;20276;-78
2024/01/17 08:16:46;;;;;;;46.03;18.37;;;-2.60;99.90;;;;;;5072437;28;20218;-79
2024/01/17 08:19:34;;;;;;;42.63;18.80;;;-2.50;99.90;;;;;;5058407;28;20204;-79
2024/01/17 08:22:22;;;;;;;40.73;17.87;;;-2.30;99.90;;;;;;5073639;28;20797;-78
2024/01/17 08:25:09;;;;;;;42.50;18.20;;;-2.40;99.90;;;;;;5072315;28;20328;-79
2024/01/17 08:27:58;;;;;;;41.90;18.93;;;-2.30;99.90;;;;;;5072307;28;20242;-78
2024/01/17 08:30:45;;;;;;;43.60;18.30;;;-2.50;99.90;;;;;;5072042;28;20324;-78
2024/01/17 08:33:32;;;;;;;46.50;19.10;;;-2.50;99.90;;;;;;5071693;28;20569;-78
2024/01/17 08:36:20;;;;;;;38.77;17.43;;;-2.60;99.90;;;;;;5057962;28;20217;-80
2024/01/17 08:39:07;;;;;;;48.20;17.73;;;-2.60;99.90;;;;;;5072142;28;20212;-80
2024/01/17 08:41:55;;;;;;;45.60;18.20;;;-2.50;99.90;;;;;;5057958;28;20241;-80
2024/01/17 08:44:45;;;;;;;41.20;17.67;;;-2.50;99.90;;;;;;5072769;28;20190;-79
2024/01/17 08:47:33;;;;;;;41.10;16.97;;;-2.50;99.90;;;;;;5071662;28;20194;-79
2024/01/17 08:50:20;;;;;;;90.10;20.53;;;-2.30;99.90;;;;;;5057822;28;20197;-78
2024/01/17 08:53:08;;;;;;;47.00;17.73;;;-2.00;99.90;;;;;;5071712;28;20294;-79
2024/01/17 08:55:57;;;;;;;45.50;18.60;;;-1.90;99.90;;;;;;5071709;28;20716;-79
2024/01/17 08:58:44;;;;;;;46.17;18.03;;;-2.10;99.90;;;;;;5071692;28;20205;-79
2024/01/17 09:01:31;;;;;;;45.00;18.37;;;-2.40;99.90;;;;;;5071780;28;20721;-78
2024/01/17 09:04:19;;;;;;;45.00;17.67;;;-2.50;99.90;;;;;;5071248;28;20308;-79
2024/01/17 09:07:08;;;;;;;48.07;18.53;;;-2.70;99.90;;;;;;5071103;28;20327;-80
2024/01/17 09:09:55;;;;;;;43.07;18.17;;;-2.70;99.90;;;;;;5070938;28;20283;-78
2024/01/17 09:12:42;;;;;;;42.97;18.40;;;-2.80;99.90;;;;;;5057142;28;20265;-80
2024/01/17 09:15:30;;;;;;;46.33;18.47;;;-3.00;99.90;;;;;;5073324;28;20699;-79
2024/01/17 09:18:18;;;;;;;44.87;18.63;;;-3.20;99.90;;;;;;5071522;28;20198;-79
2024/01/17 09:21:06;;;;;;;47.97;18.83;;;-3.20;99.90;;;;;;5056803;28;20253;-79
2024/01/17 09:23:53;;;;;;;43.40;18.10;;;-3.20;99.90;;;;;;5073441;28;20194;-79
2024/01/17 09:26:41;;;;;;;46.63;18.73;;;-3.10;99.90;;;;;;5057737;28;20230;-79
2024/01/17 09:29:33;;;;;;;45.07;17.97;;;-3.20;99.90;;;;;;5071013;28;20192;-78
2024/01/17 09:32:21;;;;;;;43.63;17.93;;;-3.00;99.90;;;;;;5071222;28;20197;-79
2024/01/17 09:35:10;;;;;;;44.90;19.20;;;-3.00;99.90;;;;;;5071424;28;20320;-79
2024/01/17 09:37:57;;;;;;;46.33;19.17;;;-2.80;99.90;;;;;;5073104;28;20203;-78
2024/01/17 09:40:49;;;;;;;50.10;20.57;;;-2.70;99.90;;;;;;5057249;28;20360;-78
2024/01/17 09:43:36;;;;;;;50.00;20.00;;;-2.80;99.90;;;;;;5071336;28;20194;-78
2024/01/17 09:46:25;;;;;;;52.83;20.27;;;-2.80;99.90;;;;;;5057191;28;20198;-78
2024/01/17 09:49:13;;;;;;;50.60;21.87;;;-2.80;99.90;;;;;;5072555;28;20221;-80
2024/01/17 09:52:04;;;;;;;54.80;21.77;;;-2.70;99.90;;;;;;5073252;28;20603;-79
2024/01/17 09:54:53;;;;;;;51.13;21.17;;;-2.80;99.90;;;;;;5071356;28;20219;-79
2024/01/17 09:57:48;;;;;;;50.37;21.67;;;-2.70;99.90;;;;;;5056922;28;20222;-79
2024/01/17 10:00:37;;;;;;;57.43;20.77;;;-2.60;99.90;;;;;;5072274;28;20696;-81
2024/01/17 10:03:28;;;;;;;48.27;21.00;;;-2.60;99.90;;;;;;5056692;28;20199;-79
2024/01/17 10:06:16;;;;;;;47.03;20.13;;;-2.60;99.90;;;;;;5070631;28;20190;-79
2024/01/17 10:09:04;;;;;;;48.33;20.40;;;-2.70;99.90;;;;;;5056662;28;20233;-78
2024/01/17 10:11:52;;;;;;;45.70;19.90;;;-2.80;99.90;;;;;;5070841;28;20248;-79
2024/01/17 10:14:41;;;;;;;46.33;19.37;;;-2.80;99.90;;;;;;5056441;28;20196;-79
2024/01/17 10:17:29;;;;;;;47.67;19.93;;;-2.80;99.90;;;;;;5057453;28;20226;-78
2024/01/17 10:20:16;;;;;;;47.30;20.37;;;-2.80;99.90;;;;;;5071061;28;20277;-78
2024/01/17 10:23:07;;;;;;;45.70;20.03;;;-2.80;99.90;;;;;;5072272;28;20195;-78
2024/01/17 10:25:55;;;;;;;47.03;20.33;;;-2.70;99.90;;;;;;5075986;28;20196;-77
2024/01/17 10:28:43;;;;;;;46.07;20.07;;;-2.50;99.90;;;;;;5060578;28;20213;-78
2024/01/17 10:31:30;;;;;;;46.17;19.73;;;-2.50;99.90;;;;;;5060573;28;20194;-78
2024/01/17 10:34:18;;;;;;;45.23;20.20;;;-2.50;99.90;;;;;;5060052;28;20657;-78
2024/01/17 10:37:06;;;;;;;50.53;20.33;;;-2.50;99.90;;;;;;5074637;28;20581;-78
2024/01/17 10:40:13;;;;;;;45.90;21.10;;;-2.50;99.90;;;;;;5060385;28;20977;-77
2024/01/17 10:43:09;;;;;;;45.93;19.90;;;-2.40;99.90;;;;;;5074444;28;20218;-77
2024/01/17 10:46:02;;;;;;;44.43;19.60;;;-2.30;99.90;;;;;;5061075;28;20199;-77
2024/01/17 10:48:50;;;;;;;48.00;20.10;;;-2.20;99.90;;;;;;5075541;28;20309;-79
2024/01/17 10:51:42;;;;;;;50.70;20.07;;;-2.10;99.90;;;;;;5060244;28;20652;-78
2024/01/17 10:54:51;;;;;;;47.80;21.00;;;-2.10;99.90;;;;;;5075892;28;20664;-78
2024/01/17 10:57:44;;;;;;;41.40;18.40;;;-1.90;99.90;;;;;;5059805;28;20287;-79
2024/01/17 11:00:34;;;;;;;48.03;19.97;;;-1.80;99.90;;;;;;5074275;28;20199;-77
2024/01/17 11:03:28;;;;;;;43.17;18.77;;;-1.70;99.90;;;;;;5074709;28;20194;-78
2024/01/17 11:06:17;;;;;;;43.97;18.90;;;-1.60;99.90;;;;;;5059873;28;20191;-78
2024/01/17 11:09:06;;;;;;;43.57;19.00;;;-1.50;99.90;;;;;;5075613;28;20191;-78
2024/01/17 11:11:57;;;;;;;45.63;18.57;;;-1.40;99.90;;;;;;5075076;28;20219;-78
2024/01/17 11:14:47;;;;;;;43.73;19.33;;;-1.40;99.90;;;;;;5059594;28;20622;-78
2024/01/17 11:17:36;;;;;;;44.73;19.63;;;-1.30;99.90;;;;;;5059386;28;20219;-77
2024/01/17 11:20:24;;;;;;;44.93;19.13;;;-1.40;99.90;;;;;;5074962;28;20286;-78
2024/01/17 11:24:01;;;;;;;41.77;18.53;;;-1.30;99.90;;;;;;5073074;28;20283;-77
2024/01/17 11:27:01;;;;;;;41.43;17.67;;;-1.20;99.90;;;;;;5073952;28;20208;-78
2024/01/17 11:30:12;;;;;;;40.17;18.10;;;-1.10;99.90;;;;;;5073521;28;20202;-78
2024/01/17 11:33:05;;;;;;;38.67;17.57;;;-0.80;99.90;;;;;;5073774;28;20203;-78
2024/01/17 11:35:53;;;;;;;42.27;17.17;;;-0.80;99.90;;;;;;5072350;28;20679;-79
2024/01/17 11:38:41;;;;;;;41.93;17.93;;;-0.70;99.90;;;;;;5073456;28;20222;-79
2024/01/17 11:41:33;;;;;;;37.80;16.67;;;-0.70;99.90;;;;;;5073994;28;20283;-79
2024/01/17 11:44:22;;;;;;;36.23;16.33;;;-0.70;99.90;;;;;;5073766;28;20208;-79
2024/01/17 11:47:09;;;;;;;37.97;16.57;;;-0.60;99.90;;;;;;5046680;28;20244;-79
2024/01/17 11:49:57;;;;;;;35.83;16.53;;;-0.40;99.90;;;;;;5072930;28;20288;-79
2024/01/17 11:52:45;;;;;;;35.50;15.73;;;0.10;99.90;;;;;;5073268;28;20199;-79
2024/01/17 11:55:33;;;;;;;34.87;15.67;;;0.60;99.90;;;;;;5072746;28;20198;-80
2024/01/17 11:58:21;;;;;;;32.63;15.07;;;1.00;99.90;;;;;;5072358;28;20247;-80
2024/01/17 12:01:17;;;;;;;33.90;15.07;;;1.20;99.90;;;;;;5074104;28;20226;-79
2024/01/17 12:04:17;;;;;;;33.10;14.37;;;1.60;99.90;;;;;;5072923;28;20278;-78
2024/01/17 12:07:05;;;;;;;28.77;14.23;;;1.80;99.90;;;;;;5058603;28;20221;-77
2024/01/17 12:09:53;;;;;;;27.50;13.90;;;1.90;99.90;;;;;;5058596;28;20573;-79
2024/01/17 12:12:45;;;;;;;30.50;14.40;;;1.80;99.90;;;;;;5058313;28;20583;-80
2024/01/17 12:15:32;;;;;;;29.13;13.60;;;1.60;99.90;;;;;;5058378;28;20196;-79
2024/01/17 12:18:21;;;;;;;27.57;13.70;;;1.50;99.90;;;;;;5073779;28;20195;-80
2024/01/17 12:21:09;;;;;;;29.10;13.73;;;1.30;99.90;;;;;;5072601;28;20197;-80
2024/01/17 12:23:56;;;;;;;27.67;13.70;;;1.10;99.90;;;;;;5058649;28;20202;-80
2024/01/17 12:26:45;;;;;;;27.63;13.40;;;0.80;99.90;;;;;;5072544;28;20222;-80
2024/01/17 12:29:33;;;;;;;31.00;13.87;;;0.70;99.90;;;;;;5072725;28;20308;-79
2024/01/17 12:32:22;;;;;;;28.53;13.87;;;0.70;99.90;;;;;;5073490;28;20205;-79
2024/01/17 12:35:09;;;;;;;27.10;13.97;;;0.50;99.90;;;;;;5072317;28;20194;-81
2024/01/17 12:37:57;;;;;;;28.90;13.53;;;0.40;99.90;;;;;;5058092;28;20774;-81
2024/01/17 12:40:44;;;;;;;29.17;13.33;;;0.40;99.90;;;;;;5072844;28;20320;-80
2024/01/17 12:43:34;;;;;;;25.13;12.37;;;0.40;99.90;;;;;;5072209;28;20605;-80
2024/01/17 12:46:22;;;;;;;27.10;12.93;;;0.30;99.90;;;;;;5071893;28;20203;-81
2024/01/17 12:49:13;;;;;;;26.13;12.93;;;0.20;99.90;;;;;;5057958;28;20247;-80
2024/01/17 12:52:02;;;;;;;31.40;12.97;;;0.20;99.90;;;;;;5072496;28;20649;-81
2024/01/17 12:54:49;;;;;;;27.27;12.00;;;0.20;99.90;;;;;;5071978;28;20693;-80
2024/01/17 12:57:38;;;;;;;27.80;11.90;;;0.10;99.90;;;;;;5073684;28;20310;-80
2024/01/17 13:00:48;;;;;;;22.93;11.70;;;0.00;99.90;;;;;;5071797;28;20201;-80
2024/01/17 13:03:37;;;;;;;24.93;10.53;;;0.00;99.90;;;;;;5072311;28;20195;-80
2024/01/17 13:06:25;;;;;;;27.90;12.20;;;0.00;99.90;;;;;;5058892;28;20609;-80
2024/01/17 13:09:15;;;;;;;26.27;11.90;;;0.00;99.90;;;;;;5071663;28;20542;-81
2024/01/17 13:12:05;;;;;;;20.23;10.67;;;0.00;99.90;;;;;;5057727;28;20208;-80
2024/01/17 13:14:53;;;;;;;28.20;10.40;;;-0.10;99.90;;;;;;5057211;28;20232;-80
2024/01/17 13:17:48;;;;;;;20.23;10.10;;;-0.10;99.90;;;;;;5073401;28;20264;-81
2024/01/17 13:20:39;;;;;;;20.70;9.83;;;-0.20;99.90;;;;;;5072201;28;20211;-81
2024/01/17 13:23:27;;;;;;;23.20;10.47;;;-0.30;99.90;;;;;;5057470;28;20199;-81
2024/01/17 13:26:15;;;;;;;23.87;10.70;;;-0.20;99.90;;;;;;5057856;28;20690;-80
2024/01/17 13:29:04;;;;;;;22.27;10.87;;;-0.10;99.90;;;;;;5071611;28;20283;-79
2024/01/17 13:31:52;;;;;;;20.93;10.40;;;0.00;99.90;;;;;;5073508;28;20232;-81
2024/01/17 13:34:40;;;;;;;19.93;11.07;;;0.10;99.90;;;;;;5056688;28;20254;-81
2024/01/17 13:37:28;;;;;;;23.77;10.37;;;0.00;99.90;;;;;;5071522;28;20598;-80
2024/01/17 13:40:18;;;;;;;22.10;10.50;;;0.10;99.90;;;;;;5071311;28;20190;-81
2024/01/17 13:43:05;;;;;;;20.97;10.50;;;0.30;99.90;;;;;;5057222;28;20258;-80
2024/01/17 13:45:53;;;;;;;23.37;10.33;;;0.40;99.90;;;;;;5057147;28;20537;-80
2024/01/17 13:48:41;;;;;;;22.47;10.47;;;0.40;99.90;;;;;;5071238;28;20199;-81
2024/01/17 13:51:31;;;;;;;21.83;10.57;;;0.20;99.90;;;;;;5057021;28;20198;-81
2024/01/17 13:54:19;;;;;;;22.40;10.70;;;0.00;99.90;;;;;;5071423;28;20204;-80
2024/01/17 13:57:06;;;;;;;23.43;10.80;;;-0.10;99.90;;;;;;5073116;28;20225;-80
2024/01/17 13:59:53;;;;;;;23.63;10.67;;;-0.20;99.90;;;;;;5075725;28;20478;-80
2024/01/17 14:02:44;;;;;;;20.57;10.43;;;-0.30;99.90;;;;;;5075144;28;20229;-81
2024/01/17 14:05:31;;;;;;;23.47;10.57;;;-0.40;99.90;;;;;;5076295;28;20231;-81
2024/01/17 14:08:19;;;;;;;20.33;10.30;;;-0.40;99.90;;;;;;5075362;28;20194;-80
2024/01/17 14:11:07;;;;;;;20.73;10.23;;;-0.50;99.90;;;;;;5076408;28;20338;-80
2024/01/17 14:13:55;;;;;;;21.77;10.83;;;-0.50;99.90;;;;;;5076819;28;20572;-79
2024/01/17 14:16:42;;;;;;;20.97;10.73;;;-0.50;99.90;;;;;;5075636;28;20196;-80